createdAt,value
2023-05-15T00:02:02.024Z,99959.91
2023-05-15T00:05:04.666Z,99960.03
2023-05-15T00:08:06.477Z,99962.66
2023-05-15T00:11:08.248Z,99964.78
2023-05-15T00:14:11.308Z,99960.19
2023-05-15T00:17:13.097Z,99965.56
2023-05-15T00:20:14.768Z,99962.78
2023-05-15T00:23:16.619Z,99962.91
2023-05-15T00:26:18.282Z,99958.84
2023-05-15T00:29:21.424Z,99966.63
2023-05-15T00:32:23.221Z,99958.97
2023-05-15T00:35:27.091Z,99958.72
2023-05-15T00:38:28.928Z,99954.25
2023-05-15T00:41:32.910Z,99958.06
2023-05-15T00:44:38.317Z,99946.50
2023-05-15T00:47:42.231Z,99953.19
2023-05-15T00:50:44.454Z,99950.19
2023-05-15T00:53:46.388Z,99948.47
2023-05-15T00:56:49.717Z,99946.09
2023-05-15T00:59:56.706Z,99946.50
2023-05-15T01:02:59.907Z,99957.63
2023-05-15T01:06:02.469Z,99952.91
2023-05-15T01:09:09.504Z,99949.09
2023-05-15T01:12:11.885Z,99944.50
2023-05-15T01:15:15.147Z,99947.34
2023-05-15T01:18:17.074Z,99948.69
2023-05-15T01:21:50.853Z,99951.78
2023-05-15T01:25:29.506Z,99955.84
2023-05-15T01:28:39.327Z,99951.69
2023-05-15T01:31:44.292Z,99950.34
2023-05-15T01:34:57.413Z,99952.19
2023-05-15T01:38:04.626Z,99954.81
2023-05-15T01:41:13.778Z,99961.72
2023-05-15T01:44:20.165Z,99957.09
2023-05-15T01:47:27.628Z,99959.59
2023-05-15T01:50:31.912Z,99955.56
2023-05-15T01:53:36.129Z,99952.94
2023-05-15T01:56:40.194Z,99957.47
2023-05-15T01:59:44.812Z,99956.00
2023-05-15T02:02:48.395Z,99946.91
2023-05-15T02:05:53.561Z,99952.97
2023-05-15T02:08:57.850Z,99950.84
2023-05-15T02:12:01.011Z,99954.59
2023-05-15T02:15:07.338Z,99951.66
2023-05-15T02:18:12.109Z,99957.38
2023-05-15T02:21:14.382Z,99956.53
2023-05-15T02:24:17.242Z,99946.44
2023-05-15T02:27:22.595Z,99950.56
2023-05-15T02:30:38.288Z,99953.66
2023-05-15T02:33:49.111Z,99948.91
2023-05-15T02:36:55.280Z,99952.16
2023-05-15T02:39:59.740Z,99948.44
2023-05-15T02:43:02.181Z,99944.47
2023-05-15T02:46:08.025Z,99944.97
2023-05-15T02:49:15.609Z,99935.91
2023-05-15T02:52:17.997Z,99941.66
2023-05-15T02:55:20.062Z,99938.44
2023-05-15T02:58:21.823Z,99941.28
2023-05-15T03:01:25.227Z,99942.34
2023-05-15T03:04:26.968Z,99941.16
2023-05-15T03:07:28.889Z,99938.69
2023-05-15T03:10:30.860Z,99937.50
2023-05-15T03:13:35.965Z,99933.47
2023-05-15T03:16:39.196Z,99932.69
2023-05-15T03:19:41.184Z,99932.41
2023-05-15T03:22:42.945Z,99931.31
2023-05-15T03:25:44.798Z,99934.66
2023-05-15T03:28:46.481Z,99938.38
2023-05-15T03:31:50.972Z,99948.22
2023-05-15T03:34:52.979Z,99941.13
2023-05-15T03:37:57.898Z,99946.53
2023-05-15T03:40:59.554Z,99946.38
2023-05-15T03:44:01.408Z,99947.19
2023-05-15T03:47:05.096Z,99952.09
2023-05-15T03:50:07.551Z,99960.59
2023-05-15T03:53:09.698Z,99964.63
2023-05-15T03:56:11.448Z,99958.91
2023-05-15T03:59:13.168Z,99957.47
2023-05-15T04:02:16.240Z,99948.50
2023-05-15T04:05:19.776Z,99963.03
2023-05-15T04:08:21.710Z,99960.69
2023-05-15T04:11:26.813Z,99964.97
2023-05-15T04:14:28.592Z,99968.50
2023-05-15T04:17:31.987Z,99962.78
2023-05-15T04:20:34.095Z,99953.09
2023-05-15T04:23:35.918Z,99964.34
2023-05-15T04:26:37.865Z,99958.13
2023-05-15T04:29:39.775Z,99970.25
2023-05-15T04:32:46.338Z,99957.75
2023-05-15T04:35:48.165Z,99964.66
2023-05-15T04:38:50.023Z,99963.75
2023-05-15T04:41:51.934Z,99961.53
2023-05-15T04:44:53.806Z,99959.06
2023-05-15T04:47:56.997Z,99947.19
2023-05-15T04:50:58.986Z,99948.88
2023-05-15T04:54:01.123Z,99947.75
2023-05-15T04:57:06.671Z,99957.13
2023-05-15T05:00:12.481Z,99964.00
2023-05-15T05:03:15.886Z,99960.38
2023-05-15T05:06:17.744Z,99955.94
2023-05-15T05:09:20.128Z,99949.75
2023-05-15T05:12:22.036Z,99956.38
2023-05-15T05:15:27.398Z,99959.34
2023-05-15T05:18:31.688Z,99960.56
2023-05-15T05:21:34.198Z,99965.03
2023-05-15T05:24:37.516Z,99960.34
2023-05-15T05:27:39.425Z,99954.19
2023-05-15T05:30:44.896Z,99964.09
2023-05-15T05:33:49.502Z,99960.81
2023-05-15T05:36:51.671Z,99960.97
2023-05-15T05:39:56.455Z,99963.72
2023-05-15T05:42:59.871Z,99967.25
2023-05-15T05:46:02.268Z,99961.34
2023-05-15T05:49:05.834Z,99980.81
2023-05-15T05:52:08.203Z,99969.09
2023-05-15T05:55:10.494Z,99968.56
2023-05-15T05:58:24.138Z,99975.44
2023-05-15T06:01:27.776Z,99969.50
2023-05-15T06:04:32.384Z,99972.25
2023-05-15T06:07:34.300Z,99976.47
2023-05-15T06:10:36.566Z,99972.47
2023-05-15T06:13:38.257Z,99975.22
2023-05-15T06:16:40.198Z,99973.22
2023-05-15T06:19:45.910Z,99977.22
2023-05-15T06:22:47.840Z,99969.84
2023-05-15T06:25:49.729Z,99973.06
2023-05-15T06:28:55.747Z,99970.44
2023-05-15T06:31:57.816Z,99969.97
2023-05-15T06:35:03.294Z,99973.31
2023-05-15T06:38:05.107Z,99970.41
2023-05-15T06:41:06.902Z,99966.13
2023-05-15T06:44:08.746Z,99962.91
2023-05-15T06:47:10.611Z,99970.69
2023-05-15T06:50:13.757Z,99974.19
2023-05-15T06:53:17.623Z,99974.59
2023-05-15T06:56:19.985Z,99975.66
2023-05-15T06:59:21.714Z,99973.38
2023-05-15T07:02:23.442Z,99970.38
2023-05-15T07:05:27.743Z,99977.59
2023-05-15T07:08:29.744Z,99977.97
2023-05-15T07:11:33.648Z,99972.22
2023-05-15T07:14:38.035Z,99973.56
2023-05-15T07:17:39.998Z,99976.09
2023-05-15T07:20:44.112Z,99972.22
2023-05-15T07:23:46.030Z,99970.16
2023-05-15T07:26:58.305Z,99964.41
2023-05-15T07:30:01.821Z,99966.38
2023-05-15T07:33:03.861Z,99975.41
2023-05-15T07:36:07.802Z,99969.81
2023-05-15T07:39:12.549Z,99967.72
2023-05-15T07:42:14.509Z,99964.38
2023-05-15T07:45:16.448Z,99958.72
2023-05-15T07:48:19.668Z,99960.19
2023-05-15T07:51:22.774Z,99947.75
2023-05-15T07:54:24.648Z,99946.72
2023-05-15T07:57:26.646Z,99957.03
2023-05-15T08:00:28.520Z,99945.06
2023-05-15T08:03:30.823Z,99949.38
2023-05-15T08:06:39.853Z,99947.09
2023-05-15T08:09:41.784Z,99948.03
2023-05-15T08:12:46.520Z,99951.78
2023-05-15T08:15:57.337Z,99950.72
2023-05-15T08:19:03.747Z,99947.97
2023-05-15T08:22:07.026Z,99949.72
2023-05-15T08:25:09.478Z,99952.41
2023-05-15T08:28:11.588Z,99946.69
2023-05-15T08:31:13.474Z,99952.25
2023-05-15T08:34:18.302Z,99956.03
2023-05-15T08:37:21.483Z,99952.38
2023-05-15T08:40:38.429Z,99948.81
2023-05-15T08:43:43.507Z,99943.09
2023-05-15T08:46:48.819Z,99938.94
2023-05-15T08:50:04.875Z,99942.13
2023-05-15T08:53:08.194Z,99942.03
2023-05-15T08:56:10.263Z,99940.91
2023-05-15T08:59:12.157Z,99933.91
2023-05-15T09:02:15.640Z,99942.84
2023-05-15T09:05:17.321Z,99935.56
2023-05-15T09:08:23.045Z,99932.25
2023-05-15T09:11:26.731Z,99941.47
2023-05-15T09:14:28.606Z,99941.91
2023-05-15T09:17:31.088Z,99929.47
2023-05-15T09:20:35.310Z,99932.09
2023-05-15T09:23:38.390Z,99931.28
2023-05-15T09:26:40.296Z,99921.31
2023-05-15T09:29:42.182Z,99924.50
2023-05-15T09:32:44.360Z,99930.06
2023-05-15T09:35:46.347Z,99919.84
2023-05-15T09:38:49.755Z,99924.34
2023-05-15T09:41:52.853Z,99921.22
2023-05-15T09:44:54.564Z,99921.03
2023-05-15T09:47:57.443Z,99915.72
2023-05-15T09:51:02.432Z,99917.91
2023-05-15T09:54:05.971Z,99910.72
2023-05-15T09:57:09.381Z,99917.66
2023-05-15T10:00:12.604Z,99912.50
2023-05-15T10:03:15.027Z,99908.28
2023-05-15T10:06:19.792Z,99898.25
2023-05-15T10:09:29.493Z,99904.31
2023-05-15T10:12:32.573Z,99895.75
2023-05-15T10:15:34.918Z,99901.03
2023-05-15T10:18:41.154Z,99893.22
2023-05-15T10:21:44.385Z,99887.75
2023-05-15T10:24:52.655Z,99894.13
2023-05-15T10:27:55.330Z,99886.47
2023-05-15T10:31:00.262Z,99881.19
2023-05-15T10:34:02.870Z,99881.34
2023-05-15T10:37:06.022Z,99882.19
2023-05-15T10:40:13.163Z,99876.81
2023-05-15T10:43:15.651Z,99860.81
2023-05-15T10:46:17.821Z,99866.00
2023-05-15T10:49:19.782Z,99857.78
2023-05-15T10:52:24.213Z,99853.22
2023-05-15T10:55:27.126Z,99858.38
2023-05-15T11:01:49.573Z,99832.94
2023-05-15T11:04:56.744Z,99828.06
2023-05-15T11:08:28.623Z,99827.25
2023-05-15T11:11:56.864Z,99824.63
2023-05-15T11:15:17.928Z,99831.13
2023-05-15T11:18:20.623Z,99826.25
2023-05-15T11:21:22.532Z,99828.53
2023-05-15T11:24:27.901Z,99816.28
2023-05-15T11:27:35.568Z,99813.34
2023-05-15T11:30:39.377Z,99808.97
2023-05-15T11:33:41.690Z,99809.38
2023-05-15T11:36:43.806Z,99802.00
2023-05-15T11:40:07.080Z,99794.63
2023-05-15T11:43:18.651Z,99811.28
2023-05-15T11:46:22.059Z,99808.69
2023-05-15T11:49:24.870Z,99813.28
2023-05-15T11:52:27.889Z,99819.94
2023-05-15T11:55:31.987Z,99829.00
2023-05-15T11:58:35.228Z,99834.97
2023-05-15T12:01:41.375Z,99821.88
2023-05-15T12:04:43.321Z,99819.13
2023-05-15T12:07:45.285Z,99813.44
2023-05-15T12:10:47.563Z,99817.69
2023-05-15T12:13:53.779Z,99816.22
2023-05-15T12:17:02.740Z,99817.06
2023-05-15T12:20:08.931Z,99818.66
2023-05-15T12:23:10.960Z,99815.72
2023-05-15T12:26:13.278Z,99822.72
2023-05-15T12:29:16.690Z,99818.63
2023-05-15T12:32:18.892Z,99817.91
2023-05-15T12:35:21.065Z,99817.06
2023-05-15T12:38:24.865Z,99815.63
2023-05-15T12:41:27.822Z,99812.53
2023-05-15T12:44:31.751Z,99812.06
2023-05-15T12:47:33.599Z,99813.50
2023-05-15T12:50:37.042Z,99815.91
2023-05-15T12:53:40.185Z,99813.41
2023-05-15T12:56:42.376Z,99817.63
2023-05-15T12:59:45.764Z,99813.63
2023-05-15T13:02:49.681Z,99803.84
2023-05-15T13:05:52.280Z,99805.75
2023-05-15T13:08:54.721Z,99807.59
2023-05-15T13:11:59.177Z,99796.25
2023-05-15T13:15:05.153Z,99794.75
2023-05-15T13:18:11.566Z,99804.41
2023-05-15T13:21:13.794Z,99799.09
2023-05-15T13:24:15.971Z,99809.69
2023-05-15T13:27:17.804Z,99809.06
2023-05-15T13:30:21.257Z,99810.44
2023-05-15T13:33:26.188Z,99810.50
2023-05-15T13:36:28.060Z,99805.50
2023-05-15T13:39:29.926Z,99790.34
2023-05-15T13:42:31.870Z,99792.56
2023-05-15T13:45:35.061Z,99792.69
2023-05-15T13:48:36.984Z,99787.59
2023-05-15T13:51:38.955Z,99791.63
2023-05-15T13:54:41.014Z,99788.25
2023-05-15T13:57:48.311Z,99790.59
2023-05-15T14:00:51.785Z,99792.00
2023-05-15T14:03:54.252Z,99790.09
2023-05-15T14:06:56.490Z,99777.81
2023-05-15T14:10:01.391Z,99780.88
2023-05-15T14:13:03.534Z,99780.63
2023-05-15T14:16:07.558Z,99793.56
2023-05-15T14:19:09.431Z,99799.53
2023-05-15T14:22:11.682Z,99798.44
2023-05-15T14:25:15.910Z,99807.41
2023-05-15T14:28:20.339Z,99790.19
2023-05-15T14:31:23.542Z,99785.25
2023-05-15T14:34:25.565Z,99787.38
2023-05-15T14:37:28.326Z,99776.31
2023-05-15T14:40:30.380Z,99775.81
2023-05-15T14:43:32.355Z,99780.63
2023-05-15T14:46:37.767Z,99777.06
2023-05-15T14:49:40.332Z,99779.44
2023-05-15T14:52:42.407Z,99782.44
2023-05-15T14:55:44.258Z,99792.56
2023-05-15T14:58:46.942Z,99786.59
2023-05-15T15:01:50.287Z,99794.81
2023-05-15T15:04:55.681Z,99809.88
2023-05-15T15:07:59.773Z,99811.41
2023-05-15T15:11:02.048Z,99803.44
2023-05-15T15:14:03.900Z,99805.53
2023-05-15T15:17:07.524Z,99813.69
2023-05-15T15:20:11.501Z,99816.84
2023-05-15T15:23:13.622Z,99816.69
2023-05-15T15:26:15.664Z,99815.53
2023-05-15T15:29:17.530Z,99815.84
2023-05-15T15:32:20.947Z,99824.00
2023-05-15T15:35:25.605Z,99827.44
2023-05-15T15:38:27.619Z,99820.91
2023-05-15T15:41:30.233Z,99824.94
2023-05-15T15:44:33.250Z,99814.84
2023-05-15T15:47:36.733Z,99823.84
2023-05-15T15:50:38.624Z,99832.34
2023-05-15T15:53:40.925Z,99835.81
2023-05-15T15:56:42.929Z,99830.88
2023-05-15T15:59:45.261Z,99834.78
2023-05-15T16:02:48.642Z,99838.28
2023-05-15T16:05:51.662Z,99831.09
2023-05-15T16:08:53.458Z,99833.44
2023-05-15T16:11:55.619Z,99820.03
2023-05-15T16:15:00.162Z,99829.44
2023-05-15T16:18:07.710Z,99833.03
2023-05-15T16:21:09.684Z,99830.38
2023-05-15T16:24:11.558Z,99840.84
2023-05-15T16:27:13.436Z,99838.94
2023-05-15T16:30:15.514Z,99836.00
2023-05-15T16:33:19.034Z,99831.28
2023-05-15T16:36:22.243Z,99812.41
2023-05-15T16:39:25.564Z,99818.03
2023-05-15T16:42:28.744Z,99820.78
2023-05-15T16:45:30.699Z,99824.97
2023-05-15T16:48:33.908Z,99815.97
2023-05-15T16:51:36.043Z,99820.78
2023-05-15T16:54:37.938Z,99816.41
2023-05-15T16:57:41.691Z,99818.78
2023-05-15T17:00:43.925Z,99817.91
2023-05-15T17:03:49.658Z,99817.56
2023-05-15T17:06:51.653Z,99827.56
2023-05-15T17:09:54.905Z,99827.56
2023-05-15T17:12:56.758Z,99827.28
2023-05-15T17:15:59.015Z,99836.06
2023-05-15T17:19:02.299Z,99848.88
2023-05-15T17:22:04.212Z,99845.84
2023-05-15T17:25:07.223Z,99854.41
2023-05-15T17:28:09.279Z,99859.59
2023-05-15T17:31:11.200Z,99868.13
2023-05-15T17:34:14.693Z,99861.38
2023-05-15T17:37:16.616Z,99853.72
2023-05-15T17:40:18.723Z,99865.41
2023-05-15T17:43:20.520Z,99867.78
2023-05-15T17:46:22.325Z,99867.25
2023-05-15T17:49:26.203Z,99878.69
2023-05-15T17:52:28.516Z,99878.00
2023-05-15T17:55:30.982Z,99883.16
2023-05-15T17:58:32.728Z,99887.66
2023-05-15T18:01:34.508Z,99894.00
2023-05-15T18:04:39.799Z,99884.19
2023-05-15T18:07:42.322Z,99890.44
2023-05-15T18:10:44.507Z,99893.91
2023-05-15T18:13:46.385Z,99910.41
2023-05-15T18:16:48.111Z,99903.34
2023-05-15T18:19:51.204Z,99908.09
2023-05-15T18:22:55.612Z,99912.38
2023-05-15T18:25:57.196Z,99908.34
2023-05-15T18:29:02.018Z,99915.25
2023-05-15T18:32:04.091Z,99914.38
2023-05-15T18:35:10.912Z,99907.41
2023-05-15T18:38:12.700Z,99912.97
2023-05-15T18:41:14.460Z,99916.94
2023-05-15T18:44:16.283Z,99916.91
2023-05-15T18:47:18.339Z,99917.19
2023-05-15T18:50:22.034Z,99914.00
2023-05-15T18:53:26.342Z,99922.38
2023-05-15T18:56:28.420Z,99929.47
2023-05-15T18:59:30.240Z,99934.41
2023-05-15T19:02:35.012Z,99940.78
2023-05-15T19:05:38.339Z,99942.94
2023-05-15T19:08:40.249Z,99935.44
2023-05-15T19:11:46.638Z,99952.16
2023-05-15T19:14:48.652Z,99960.47
2023-05-15T19:17:50.688Z,99959.53
2023-05-15T19:20:54.216Z,99959.94
2023-05-15T19:23:56.100Z,99967.25
2023-05-15T19:27:01.093Z,99967.03
2023-05-15T19:30:07.703Z,99974.22
2023-05-15T19:33:09.524Z,99979.19
2023-05-15T19:36:13.187Z,99987.81
2023-05-15T19:39:17.589Z,99995.66
2023-05-15T19:42:19.427Z,99996.13
2023-05-15T19:45:21.609Z,99999.25
2023-05-15T19:48:23.606Z,100009.47
2023-05-15T19:51:26.783Z,100009.13
2023-05-15T19:54:28.813Z,100005.16
2023-05-15T19:57:30.615Z,100002.22
2023-05-15T20:00:35.323Z,100011.88
2023-05-15T20:03:37.496Z,100006.50
2023-05-15T20:06:41.108Z,100005.16
2023-05-15T20:09:42.963Z,100005.16
2023-05-15T20:12:45.316Z,100016.50
2023-05-15T20:15:47.757Z,100021.00
2023-05-15T20:18:54.588Z,100027.81
2023-05-15T20:21:57.735Z,100023.91
2023-05-15T20:24:59.547Z,100017.47
2023-05-15T20:28:01.655Z,100019.75
2023-05-15T20:31:03.849Z,100018.50
2023-05-15T20:34:07.066Z,100014.38
2023-05-15T20:37:10.259Z,100013.00
2023-05-15T20:40:12.988Z,100010.81
2023-05-15T20:43:14.826Z,100006.00
2023-05-15T20:46:18.861Z,100011.50
2023-05-15T20:49:20.946Z,100022.88
2023-05-15T20:52:30.557Z,100021.84
2023-05-15T20:55:32.648Z,100025.88
2023-05-15T20:58:35.236Z,100028.16
2023-05-15T21:01:37.210Z,100026.66
2023-05-15T21:04:41.122Z,100025.88
2023-05-15T21:07:44.406Z,100026.31
2023-05-15T21:10:50.852Z,100033.00
2023-05-15T21:13:52.716Z,100026.53
2023-05-15T21:16:54.525Z,100022.06
2023-05-15T21:19:58.438Z,100023.19
2023-05-15T21:23:01.590Z,100031.56
2023-05-15T21:26:03.853Z,100028.00
2023-05-15T21:29:05.694Z,100040.41
2023-05-15T21:32:07.868Z,100028.69
2023-05-15T21:35:10.221Z,100040.06
2023-05-15T21:38:13.294Z,100037.19
2023-05-15T21:41:15.012Z,100039.00
2023-05-15T21:44:17.007Z,100042.44
2023-05-15T21:47:23.530Z,100043.56
2023-05-15T21:50:26.141Z,100049.63
2023-05-15T21:53:29.704Z,100044.28
2023-05-15T21:56:51.939Z,100045.69
2023-05-15T21:59:53.816Z,100032.28
2023-05-15T22:02:57.693Z,100036.09
2023-05-15T22:05:59.488Z,100040.91
2023-05-15T22:09:02.844Z,100040.22
2023-05-15T22:12:05.289Z,100049.97
2023-05-15T22:15:11.003Z,100043.88
2023-05-15T22:18:13.149Z,100051.69
2023-05-15T22:21:15.425Z,100054.09
2023-05-15T22:24:18.892Z,100054.19
2023-05-15T22:27:20.603Z,100059.47
2023-05-15T22:30:22.830Z,100044.47
2023-05-15T22:33:24.995Z,100059.47
2023-05-15T22:36:26.868Z,100062.50
2023-05-15T22:39:29.977Z,100058.56
2023-05-15T22:42:34.146Z,100063.50
2023-05-15T22:45:36.191Z,100057.22
2023-05-15T22:48:41.321Z,100070.91
2023-05-15T22:51:43.015Z,100065.41
2023-05-15T22:54:46.921Z,100071.06
2023-05-15T22:57:48.882Z,100076.13
2023-05-15T23:00:51.052Z,100076.69
2023-05-15T23:03:52.786Z,100084.50
2023-05-15T23:06:55.996Z,100070.72
2023-05-15T23:09:59.116Z,100066.81
2023-05-15T23:13:00.963Z,100073.94
2023-05-15T23:16:02.869Z,100067.63
2023-05-15T23:19:04.617Z,100071.19
2023-05-15T23:22:06.500Z,100069.34
2023-05-15T23:25:10.397Z,100067.75
2023-05-15T23:28:12.156Z,100063.81
2023-05-15T23:31:14.386Z,100067.94
2023-05-15T23:34:16.365Z,100069.00
2023-05-15T23:37:18.951Z,100071.53
2023-05-15T23:40:22.313Z,100072.44
2023-05-15T23:43:24.065Z,100065.88
2023-05-15T23:46:25.905Z,100064.84
2023-05-15T23:49:29.602Z,100065.16
2023-05-15T23:52:51.289Z,100064.13
2023-05-15T23:55:54.573Z,100069.91
2023-05-15T23:58:56.392Z,100071.47
